createdAt,value
2018-07-14T00:00:15.870Z,19.90
2018-07-14T00:02:44.501Z,19.90
2018-07-14T00:05:13.300Z,19.90
2018-07-14T00:07:42.834Z,19.90
2018-07-14T00:10:11.657Z,19.90
2018-07-14T00:12:40.346Z,19.90
2018-07-14T00:15:08.985Z,19.70
2018-07-14T00:17:37.877Z,19.50
2018-07-14T00:20:07.392Z,19.50
2018-07-14T00:22:35.842Z,19.50
2018-07-14T00:25:04.641Z,19.50
2018-07-14T00:27:33.348Z,19.50
2018-07-14T00:30:02.082Z,19.50
2018-07-14T00:32:30.685Z,19.50
2018-07-14T00:34:59.337Z,19.50
2018-07-14T00:37:28.230Z,19.40
2018-07-14T00:39:56.770Z,19.20
2018-07-14T00:42:25.523Z,19.30
2018-07-14T00:44:54.226Z,19.20
2018-07-14T00:47:22.805Z,19.30
2018-07-14T00:49:51.389Z,19.30
2018-07-14T00:52:19.962Z,19.30
2018-07-14T00:54:48.465Z,19.30
2018-07-14T00:57:16.973Z,19.30
2018-07-14T00:59:45.593Z,19.20
2018-07-14T01:02:14.264Z,19.20
2018-07-14T01:04:42.853Z,19.20
2018-07-14T01:07:11.376Z,19.20
2018-07-14T01:09:40.008Z,19.10
2018-07-14T01:12:08.565Z,19.10
2018-07-14T01:14:37.240Z,19.10
2018-07-14T01:17:06.473Z,19.10
2018-07-14T01:19:35.081Z,19.00
2018-07-14T01:22:03.647Z,18.80
2018-07-14T01:24:33.038Z,18.90
2018-07-14T01:27:01.646Z,19.00
2018-07-14T01:29:30.506Z,19.10
2018-07-14T01:31:59.106Z,19.10
2018-07-14T01:34:27.662Z,19.10
2018-07-14T01:36:56.350Z,19.10
2018-07-14T01:39:24.822Z,19.20
2018-07-14T01:41:53.461Z,19.10
2018-07-14T01:44:21.953Z,19.20
2018-07-14T01:46:50.501Z,19.20
2018-07-14T01:49:19.108Z,19.20
2018-07-14T01:51:47.581Z,19.10
2018-07-14T01:54:16.020Z,19.20
2018-07-14T01:56:44.843Z,19.20
2018-07-14T01:59:13.509Z,19.20
2018-07-14T02:01:42.084Z,19.20
2018-07-14T02:04:10.569Z,19.20
2018-07-14T02:06:39.226Z,19.20
2018-07-14T02:09:07.804Z,19.10
2018-07-14T02:14:04.602Z,19.20
2018-07-14T02:16:33.230Z,19.20
2018-07-14T02:19:01.886Z,19.20
2018-07-14T02:21:30.410Z,19.20
2018-07-14T02:23:59.341Z,19.20
2018-07-14T02:26:28.019Z,19.10
2018-07-14T02:28:56.774Z,19.00
2018-07-14T02:31:25.442Z,19.00
2018-07-14T02:33:53.858Z,19.00
2018-07-14T02:36:22.335Z,19.00
2018-07-14T02:38:51.063Z,19.00
2018-07-14T02:41:19.570Z,19.00
2018-07-14T02:43:48.057Z,19.00
2018-07-14T02:46:16.570Z,19.00
2018-07-14T02:48:45.079Z,19.00
2018-07-14T02:51:13.541Z,18.80
2018-07-14T02:53:42.198Z,18.70
2018-07-14T02:56:10.665Z,18.60
2018-07-14T02:58:39.272Z,18.70
2018-07-14T03:01:07.838Z,18.70
2018-07-14T03:03:36.292Z,18.80
2018-07-14T03:06:04.882Z,18.70
2018-07-14T03:08:33.337Z,18.50
2018-07-14T03:11:02.070Z,18.40
2018-07-14T03:13:30.700Z,18.30
2018-07-14T03:15:59.277Z,18.20
2018-07-14T03:18:27.884Z,18.20
2018-07-14T03:20:56.391Z,18.30
2018-07-14T03:23:25.140Z,18.50
2018-07-14T03:25:53.827Z,18.40
2018-07-14T03:28:22.446Z,18.40
2018-07-14T03:30:51.180Z,18.40
2018-07-14T03:33:19.678Z,18.50
2018-07-14T03:35:48.362Z,18.50
2018-07-14T03:38:16.993Z,18.50
2018-07-14T03:40:45.734Z,18.50
2018-07-14T03:43:14.270Z,18.40
2018-07-14T03:45:42.697Z,18.40
2018-07-14T03:48:11.126Z,18.40
2018-07-14T03:50:39.652Z,18.40
2018-07-14T03:53:08.388Z,18.30
2018-07-14T03:55:36.844Z,18.20
2018-07-14T03:58:05.347Z,18.20
2018-07-14T04:00:33.904Z,18.20
2018-07-14T04:03:02.351Z,18.00
2018-07-14T04:05:31.186Z,18.00
2018-07-14T04:07:59.922Z,18.00
2018-07-14T04:10:28.347Z,18.00
2018-07-14T04:12:56.889Z,18.00
2018-07-14T04:15:25.496Z,18.10
2018-07-14T04:18:03.470Z,18.10
2018-07-14T04:20:32.710Z,18.10
2018-07-14T04:23:01.840Z,18.10
2018-07-14T04:25:31.538Z,18.10
2018-07-14T04:28:01.190Z,17.90
2018-07-14T04:30:29.962Z,17.70
2018-07-14T04:32:58.430Z,17.80
2018-07-14T04:35:27.750Z,18.00
2018-07-14T04:37:56.181Z,18.10
2018-07-14T04:40:24.696Z,18.20
2018-07-14T04:42:53.314Z,18.40
2018-07-14T04:45:22.014Z,18.50
2018-07-14T04:47:50.848Z,18.70
2018-07-14T04:50:19.285Z,18.70
2018-07-14T04:52:47.851Z,18.50
2018-07-14T04:55:16.361Z,18.50
2018-07-14T04:57:45.180Z,18.50
2018-07-14T05:00:13.764Z,18.50
2018-07-14T05:02:42.203Z,18.60
2018-07-14T05:05:12.001Z,18.60
2018-07-14T05:07:41.555Z,18.50
2018-07-14T05:10:10.059Z,18.40
2018-07-14T05:12:38.572Z,18.50
2018-07-14T05:15:07.283Z,18.50
2018-07-14T05:17:35.717Z,18.40
2018-07-14T05:20:04.390Z,18.40
2018-07-14T05:22:32.894Z,18.50
2018-07-14T05:25:01.536Z,18.60
2018-07-14T05:27:30.231Z,18.80
2018-07-14T05:29:59.102Z,18.90
2018-07-14T05:32:27.784Z,18.90
2018-07-14T05:34:56.450Z,18.90
2018-07-14T05:37:25.533Z,19.00
2018-07-14T05:39:54.040Z,19.10
2018-07-14T05:42:22.522Z,19.20
2018-07-14T05:44:51.296Z,19.30
2018-07-14T05:47:19.880Z,19.50
2018-07-14T05:49:49.122Z,19.50
2018-07-14T05:52:17.878Z,19.70
2018-07-14T05:54:46.546Z,19.70
2018-07-14T05:57:16.113Z,19.90
2018-07-14T05:59:44.856Z,19.70
2018-07-14T06:02:13.767Z,19.70
2018-07-14T06:04:42.425Z,19.90
2018-07-14T06:07:11.721Z,20.10
2018-07-14T06:09:40.439Z,20.20
2018-07-14T06:12:09.149Z,20.30
2018-07-14T06:14:37.633Z,20.50
2018-07-14T06:17:06.671Z,20.60
2018-07-14T06:19:35.786Z,20.60
2018-07-14T06:22:04.389Z,20.70
2018-07-14T06:24:32.963Z,20.70
2018-07-14T06:27:01.520Z,20.90
2018-07-14T06:29:30.397Z,21.00
2018-07-14T06:31:59.025Z,20.80
2018-07-14T06:34:27.413Z,20.90
2018-07-14T06:36:55.870Z,21.10
2018-07-14T06:39:24.312Z,21.20
2018-07-14T06:41:52.819Z,21.00
2018-07-14T06:44:21.255Z,21.00
2018-07-14T06:49:17.981Z,21.30
2018-07-14T06:51:46.656Z,21.40
2018-07-14T06:54:15.400Z,21.50
2018-07-14T06:56:43.826Z,21.30
2018-07-14T06:59:12.609Z,21.50
2018-07-14T07:01:41.107Z,21.70
2018-07-14T07:04:09.586Z,21.90
2018-07-14T07:06:38.105Z,22.20
2018-07-14T07:09:06.770Z,22.30
2018-07-14T07:11:35.961Z,22.40
2018-07-14T07:14:04.640Z,22.50
2018-07-14T07:16:33.208Z,22.60
2018-07-14T07:19:01.665Z,22.40
2018-07-14T07:21:33.122Z,22.40
2018-07-14T07:24:01.673Z,22.40
2018-07-14T07:26:30.185Z,22.50
2018-07-14T07:28:58.722Z,22.80
2018-07-14T07:31:28.194Z,23.00
2018-07-14T07:33:56.783Z,23.20
2018-07-14T07:36:25.366Z,23.40
2018-07-14T07:38:54.175Z,23.70
2018-07-14T07:41:23.252Z,24.00
2018-07-14T07:43:51.724Z,24.10
2018-07-14T07:46:21.098Z,24.30
2018-07-14T07:48:49.594Z,24.40
2018-07-14T07:51:18.069Z,24.50
2018-07-14T07:53:46.625Z,24.60
2018-07-14T07:56:15.091Z,24.70
2018-07-14T07:58:43.574Z,24.60
2018-07-14T08:03:40.272Z,25.10
2018-07-14T08:06:08.885Z,25.30
2018-07-14T08:08:37.430Z,25.20
2018-07-14T08:11:05.869Z,25.40
2018-07-14T08:13:34.334Z,25.80
2018-07-14T08:16:02.869Z,26.00
2018-07-14T08:20:59.609Z,25.80
2018-07-14T08:25:56.397Z,26.20
2018-07-14T08:28:25.115Z,26.00
2018-07-14T08:30:53.750Z,25.80
2018-07-14T08:33:22.195Z,25.90
2018-07-14T08:35:50.748Z,25.50
2018-07-14T08:38:19.287Z,25.30
2018-07-14T08:40:47.816Z,25.20
2018-07-14T08:43:16.533Z,25.50
2018-07-14T08:45:45.078Z,25.90
2018-07-14T08:48:13.682Z,26.50
2018-07-14T08:50:42.254Z,26.80
2018-07-14T08:53:10.809Z,26.60
2018-07-14T08:55:39.425Z,27.10
2018-07-14T08:58:08.122Z,27.20
2018-07-14T09:00:36.688Z,27.60
2018-07-14T09:03:05.279Z,27.90
2018-07-14T09:05:33.940Z,28.30
2018-07-14T09:08:02.602Z,28.40
2018-07-14T09:10:31.128Z,28.00
2018-07-14T09:12:59.677Z,28.00
2018-07-14T09:15:28.176Z,28.20
2018-07-14T09:17:56.756Z,28.50
2018-07-14T09:20:25.386Z,29.20
2018-07-14T09:22:53.918Z,29.30
2018-07-14T09:25:22.409Z,29.40
2018-07-14T09:27:50.971Z,29.30
2018-07-14T09:30:19.485Z,29.60
2018-07-14T09:32:48.172Z,29.50
2018-07-14T09:35:16.781Z,29.30
2018-07-14T09:37:45.333Z,28.70
2018-07-14T09:40:14.009Z,28.80
2018-07-14T09:42:42.556Z,29.20
2018-07-14T09:45:11.150Z,29.40
2018-07-14T09:47:39.883Z,29.40
2018-07-14T09:50:08.750Z,29.30
2018-07-14T09:52:37.338Z,29.10
2018-07-14T09:55:06.281Z,29.00
2018-07-14T09:57:34.868Z,29.50
2018-07-14T10:00:03.674Z,29.40
2018-07-14T10:02:32.347Z,29.90
2018-07-14T10:05:00.910Z,30.30
2018-07-14T10:07:29.571Z,30.60
2018-07-14T10:09:58.090Z,29.90
2018-07-14T10:12:26.913Z,29.70
2018-07-14T10:14:55.465Z,30.00
2018-07-14T10:17:23.948Z,29.60
2018-07-14T10:19:52.396Z,29.90
2018-07-14T10:22:20.976Z,30.30
2018-07-14T10:24:49.404Z,30.80
2018-07-14T10:27:17.851Z,30.60
2018-07-14T10:29:46.273Z,30.50
2018-07-14T10:32:14.960Z,30.30
2018-07-14T10:34:43.676Z,30.70
2018-07-14T10:37:13.673Z,30.90
2018-07-14T10:39:42.283Z,31.10
2018-07-14T10:42:10.784Z,30.90
2018-07-14T10:44:39.277Z,30.50
2018-07-14T10:49:35.902Z,29.80
2018-07-14T10:52:04.322Z,30.30
2018-07-14T10:54:32.809Z,30.50
2018-07-14T10:57:01.496Z,30.20
2018-07-14T10:59:30.249Z,30.50
2018-07-14T11:01:58.746Z,31.10
2018-07-14T11:04:27.260Z,31.70
2018-07-14T11:09:24.009Z,30.90
2018-07-14T11:11:52.561Z,30.40
2018-07-14T11:14:21.090Z,30.00
2018-07-14T11:16:49.619Z,29.80
2018-07-14T11:19:18.128Z,30.60
2018-07-14T11:21:46.647Z,31.30
2018-07-14T11:24:15.257Z,31.40
2018-07-14T11:26:43.799Z,30.50
2018-07-14T11:29:12.303Z,30.50
2018-07-14T11:31:41.037Z,30.80
2018-07-14T11:34:09.562Z,31.20
2018-07-14T11:36:38.112Z,31.40
2018-07-14T11:39:06.871Z,31.50
2018-07-14T11:41:35.398Z,31.50
2018-07-14T11:44:04.121Z,31.20
2018-07-14T11:46:32.665Z,30.90
2018-07-14T11:49:01.183Z,31.10
2018-07-14T11:51:30.289Z,31.00
2018-07-14T11:53:58.839Z,31.50
2018-07-14T11:56:27.349Z,31.50
2018-07-14T11:58:55.793Z,30.50
2018-07-14T12:01:24.391Z,30.20
2018-07-14T12:03:52.833Z,30.30
2018-07-14T12:06:21.622Z,30.40
2018-07-14T12:08:50.145Z,30.50
2018-07-14T12:11:18.844Z,31.00
2018-07-14T12:13:47.370Z,31.30
2018-07-14T12:16:16.118Z,31.10
2018-07-14T12:18:44.737Z,30.90
2018-07-14T12:21:13.317Z,31.40
2018-07-14T12:23:42.591Z,32.00
2018-07-14T12:26:11.238Z,32.10
2018-07-14T12:28:39.703Z,31.20
2018-07-14T12:31:08.286Z,31.00
2018-07-14T12:33:36.814Z,30.60
2018-07-14T12:36:05.785Z,30.80
2018-07-14T12:38:34.392Z,30.40
2018-07-14T12:41:02.892Z,30.30
2018-07-14T12:43:31.448Z,30.30
2018-07-14T12:45:59.843Z,31.10
2018-07-14T12:48:28.651Z,31.10
2018-07-14T12:50:57.152Z,30.90
2018-07-14T12:53:25.698Z,30.80
2018-07-14T12:55:54.256Z,31.20
2018-07-14T12:58:22.981Z,31.20
2018-07-14T13:00:51.812Z,31.20
2018-07-14T13:03:20.370Z,31.80
2018-07-14T13:05:48.988Z,31.20
2018-07-14T13:08:17.552Z,30.80
2018-07-14T13:10:46.396Z,30.50
2018-07-14T13:13:15.004Z,30.90
2018-07-14T13:15:43.557Z,31.10
2018-07-14T13:18:12.766Z,30.60
2018-07-14T13:20:41.342Z,30.20
2018-07-14T13:23:10.629Z,29.60
2018-07-14T13:25:39.246Z,29.50
2018-07-14T13:28:07.799Z,29.70
2018-07-14T13:33:04.750Z,30.40
2018-07-14T13:35:33.482Z,30.70
2018-07-14T13:38:02.180Z,31.40
2018-07-14T13:40:31.017Z,31.70
2018-07-14T13:42:59.629Z,31.30
2018-07-14T13:45:28.085Z,31.40
2018-07-14T13:47:56.551Z,31.40
2018-07-14T13:50:25.087Z,31.40
2018-07-14T13:52:53.560Z,30.70
2018-07-14T13:55:22.285Z,30.20
2018-07-14T13:57:50.844Z,30.00
2018-07-14T14:00:19.340Z,30.00
2018-07-14T14:02:47.884Z,29.90
2018-07-14T14:05:16.407Z,29.70
2018-07-14T14:07:44.941Z,29.60
2018-07-14T14:10:13.397Z,29.60
2018-07-14T14:12:41.964Z,29.20
2018-07-14T14:15:10.601Z,29.20
2018-07-14T14:17:39.099Z,29.90
2018-07-14T14:20:07.661Z,30.30
2018-07-14T14:22:36.269Z,30.20
2018-07-14T14:25:04.837Z,30.30
2018-07-14T14:27:33.332Z,30.50
2018-07-14T14:30:01.964Z,30.30
2018-07-14T14:32:30.498Z,30.40
2018-07-14T14:34:58.966Z,30.70
2018-07-14T14:37:27.472Z,30.70
2018-07-14T14:39:56.093Z,30.50
2018-07-14T14:42:24.807Z,30.30
2018-07-14T14:44:53.302Z,30.30
2018-07-14T14:47:21.817Z,29.80
2018-07-14T14:49:50.597Z,29.30
2018-07-14T14:52:19.478Z,29.00
2018-07-14T14:54:47.946Z,29.00
2018-07-14T14:57:16.417Z,29.00
2018-07-14T14:59:44.954Z,28.90
2018-07-14T15:02:13.490Z,28.90
2018-07-14T15:04:42.101Z,28.80
2018-07-14T15:07:10.619Z,28.70
2018-07-14T15:09:39.295Z,28.70
2018-07-14T15:12:08.035Z,28.60
2018-07-14T15:14:37.387Z,28.60
2018-07-14T15:17:05.924Z,28.50
2018-07-14T15:19:34.421Z,28.50
2018-07-14T15:22:03.042Z,28.50
2018-07-14T15:24:31.542Z,28.60
2018-07-14T15:27:00.903Z,28.60
2018-07-14T15:29:29.973Z,28.40
2018-07-14T15:31:59.219Z,28.40
2018-07-14T15:34:27.807Z,28.40
2018-07-14T15:36:56.380Z,28.50
2018-07-14T15:39:24.870Z,28.80
2018-07-14T15:41:53.597Z,29.20
2018-07-14T15:46:50.277Z,29.60
2018-07-14T15:49:18.916Z,29.40
2018-07-14T15:51:47.474Z,29.00
2018-07-14T15:54:16.110Z,29.10
2018-07-14T15:56:44.549Z,29.20
2018-07-14T15:59:13.124Z,29.10
2018-07-14T16:01:41.781Z,29.30
2018-07-14T16:04:10.333Z,29.30
2018-07-14T16:06:38.923Z,29.10
2018-07-14T16:09:08.098Z,29.20
2018-07-14T16:11:37.269Z,29.00
2018-07-14T16:14:05.897Z,28.70
2018-07-14T16:16:34.481Z,28.50
2018-07-14T16:19:03.155Z,28.30
2018-07-14T16:21:31.578Z,28.30
2018-07-14T16:24:00.241Z,28.20
2018-07-14T16:26:28.937Z,28.20
2018-07-14T16:28:58.147Z,28.10
2018-07-14T16:31:26.682Z,28.10
2018-07-14T16:33:55.135Z,28.30
2018-07-14T16:36:23.652Z,28.30
2018-07-14T16:38:52.198Z,28.20
2018-07-14T16:41:20.741Z,28.10
2018-07-14T16:43:49.601Z,28.20
2018-07-14T16:46:18.355Z,28.20
2018-07-14T16:48:47.630Z,28.00
2018-07-14T16:51:16.201Z,28.10
2018-07-14T16:53:44.808Z,28.20
2018-07-14T16:56:13.371Z,28.10
2018-07-14T16:58:41.918Z,28.10
2018-07-14T17:01:10.513Z,28.40
2018-07-14T17:03:39.298Z,28.30
2018-07-14T17:06:07.881Z,28.20
2018-07-14T17:08:36.674Z,28.30
2018-07-14T17:11:05.241Z,28.20
2018-07-14T17:13:33.773Z,28.30
2018-07-14T17:16:02.426Z,28.20
2018-07-14T17:18:31.058Z,28.10
2018-07-14T17:20:59.497Z,27.90
2018-07-14T17:23:28.084Z,27.80
2018-07-14T17:25:56.645Z,27.70
2018-07-14T17:28:25.234Z,27.70
2018-07-14T17:30:53.771Z,27.70
2018-07-14T17:33:22.197Z,27.90
2018-07-14T17:35:50.730Z,27.90
2018-07-14T17:38:19.243Z,28.10
2018-07-14T17:40:47.992Z,28.10
2018-07-14T17:43:16.536Z,28.10
2018-07-14T17:45:45.146Z,28.00
2018-07-14T17:48:14.349Z,28.00
2018-07-14T17:50:42.873Z,27.90
2018-07-14T17:53:11.357Z,28.00
2018-07-14T17:55:39.920Z,28.00
2018-07-14T17:58:08.462Z,27.90
2018-07-14T18:00:36.936Z,27.90
2018-07-14T18:03:05.446Z,28.00
2018-07-14T18:05:34.133Z,28.00
2018-07-14T18:08:02.599Z,28.00
2018-07-14T18:10:31.058Z,27.90
2018-07-14T18:13:00.026Z,27.70
2018-07-14T18:15:28.484Z,27.70
2018-07-14T18:17:56.949Z,27.80
2018-07-14T18:22:53.601Z,27.70
2018-07-14T18:25:22.118Z,27.70
2018-07-14T18:27:50.832Z,27.60
2018-07-14T18:30:19.652Z,27.60
2018-07-14T18:32:48.177Z,27.50
2018-07-14T18:35:16.704Z,27.50
2018-07-14T18:37:45.189Z,27.40
2018-07-14T18:40:13.687Z,27.30
2018-07-14T18:42:42.217Z,27.20
2018-07-14T18:45:10.774Z,27.20
2018-07-14T18:47:39.321Z,27.10
2018-07-14T18:50:10.666Z,27.00
2018-07-14T18:52:40.398Z,26.90
2018-07-14T18:55:08.902Z,26.80
2018-07-14T18:57:37.431Z,26.70
2018-07-14T19:00:05.947Z,26.50
2018-07-14T19:02:34.455Z,26.30
2018-07-14T19:05:02.983Z,26.30
2018-07-14T19:07:31.473Z,26.20
2018-07-14T19:10:00.200Z,26.20
2018-07-14T19:12:28.673Z,26.10
2018-07-14T19:14:57.502Z,26.00
2018-07-14T19:17:26.000Z,25.80
2018-07-14T19:19:54.454Z,25.80
2018-07-14T19:22:22.911Z,25.60
2018-07-14T19:24:51.401Z,25.50
2018-07-14T19:27:19.997Z,25.40
2018-07-14T19:29:48.579Z,25.30
2018-07-14T19:32:17.469Z,25.30
2018-07-14T19:34:47.663Z,25.30
2018-07-14T19:37:16.249Z,25.30
2018-07-14T19:39:44.884Z,25.20
2018-07-14T19:42:13.430Z,25.10
2018-07-14T19:44:42.429Z,25.00
2018-07-14T19:47:10.940Z,25.00
2018-07-14T19:49:39.875Z,24.90
2018-07-14T19:52:08.443Z,24.80
2018-07-14T19:54:37.248Z,24.70
2018-07-14T19:57:05.977Z,24.60
2018-07-14T19:59:34.897Z,24.60
2018-07-14T20:02:03.481Z,24.50
2018-07-14T20:04:31.924Z,24.50
2018-07-14T20:07:00.532Z,24.40
2018-07-14T20:09:29.201Z,24.30
2018-07-14T20:11:57.783Z,24.10
2018-07-14T20:14:26.368Z,23.80
2018-07-14T20:16:54.953Z,23.70
2018-07-14T20:19:23.806Z,23.80
2018-07-14T20:21:52.741Z,23.90
2018-07-14T20:24:21.364Z,23.90
2018-07-14T20:26:49.836Z,23.80
2018-07-14T20:29:18.378Z,23.50
2018-07-14T20:31:46.830Z,23.30
2018-07-14T20:34:16.054Z,23.30
